Time;durP1;ratioP1;P1;durP2;ratioP2;P2;SDS_P1;SDS_P2;PMS_P1;PMS_P2;Temp;Humidity;BMP_temperature;BMP_pressure;BME280_temperature;BME280_humidity;BME280_pressure;Samples;Min_cycle;Max_cycle;Signal;HPM_P1;HPM_P2
2023/03/01 00:00:38;;;;;;;28.90;15.45;;;128.70;2252.80;;;;;;4975127;28;20065;-77
2023/03/01 00:03:03;;;;;;;27.10;16.20;;;128.70;2252.80;;;;;;4957817;28;20029;-79
2023/03/01 00:05:29;;;;;;;31.38;18.50;;;128.70;2252.80;;;;;;4957549;28;20457;-78
2023/03/01 00:07:55;;;;;;;24.75;14.88;;;128.70;2252.80;;;;;;4957727;28;20073;-76
2023/03/01 00:10:21;;;;;;;30.50;17.92;;;128.60;2252.80;;;;;;4957278;28;20033;-77
2023/03/01 00:12:46;;;;;;;34.88;17.77;;;128.60;2252.80;;;;;;4957664;28;20027;-78
2023/03/01 00:15:12;;;;;;;26.95;15.13;;;128.60;2252.80;;;;;;4974540;28;20474;-76
2023/03/01 00:17:38;;;;;;;28.63;16.60;;;128.50;2252.80;;;;;;4957372;28;20034;-77
2023/03/01 00:20:08;;;;;;;25.60;16.50;;;128.60;2252.80;;;;;;4974683;28;20488;-75
2023/03/01 00:22:33;;;;;;;31.40;18.33;;;128.60;2252.80;;;;;;4957479;28;20131;-76
2023/03/01 00:24:59;;;;;;;29.17;17.33;;;128.70;2252.80;;;;;;4957284;28;20102;-78
2023/03/01 00:27:25;;;;;;;40.63;20.52;;;128.70;2252.80;;;;;;4957548;28;20027;-75
2023/03/01 00:29:52;;;;;;;38.30;18.83;;;128.70;2252.80;;;;;;4957546;28;20027;-78
2023/03/01 00:32:17;;;;;;;29.55;17.55;;;128.70;2252.80;;;;;;4957133;28;20030;-77
2023/03/01 00:34:53;;;;;;;31.27;18.67;;;128.70;2252.80;;;;;;4957337;28;20481;-77
2023/03/01 00:37:23;;;;;;;35.47;16.85;;;128.70;2252.80;;;;;;4957572;28;20463;-76
2023/03/01 00:39:49;;;;;;;38.58;19.48;;;128.70;2252.80;;;;;;4957108;28;20050;-75
2023/03/01 00:42:16;;;;;;;40.95;23.27;;;128.70;2252.80;;;;;;4974716;28;20102;-75
2023/03/01 00:44:42;;;;;;;39.33;23.67;;;128.70;2252.80;;;;;;4957472;28;20026;-76
2023/03/01 00:47:08;;;;;;;28.30;18.63;;;128.80;2252.80;;;;;;4957055;28;20073;-78
2023/03/01 00:49:35;;;;;;;30.50;21.35;;;128.80;2252.80;;;;;;4957389;28;20031;-77
2023/03/01 00:52:00;;;;;;;32.95;21.45;;;128.90;2252.80;;;;;;4977096;28;20043;-79
2023/03/01 00:54:26;;;;;;;27.98;17.10;;;128.90;2252.80;;;;;;4960732;28;20062;-78
2023/03/01 00:56:52;;;;;;;23.20;14.90;;;128.80;2252.80;;;;;;4961072;28;20023;-78
2023/03/01 00:59:17;;;;;;;22.38;14.50;;;128.80;2252.80;;;;;;4960670;28;20033;-77
2023/03/01 01:01:43;;;;;;;23.50;14.25;;;128.80;2252.80;;;;;;4960946;28;20763;-76
2023/03/01 01:04:11;;;;;;;20.65;13.00;;;128.70;2252.80;;;;;;4960814;28;20113;-78
2023/03/01 01:06:46;;;;;;;22.88;12.73;;;128.70;2252.80;;;;;;4960703;28;20038;-77
2023/03/01 01:09:18;;;;;;;19.98;11.88;;;128.70;2252.80;;;;;;4960943;28;20027;-76
2023/03/01 01:11:49;;;;;;;24.67;12.10;;;128.70;2252.80;;;;;;4960774;28;20427;-78
2023/03/01 01:14:15;;;;;;;22.92;13.30;;;128.60;2252.80;;;;;;4960523;28;20057;-77
2023/03/01 01:16:41;;;;;;;20.83;13.32;;;128.50;2252.80;;;;;;4960771;28;20383;-78
2023/03/01 01:19:07;;;;;;;23.38;14.23;;;128.60;2252.80;;;;;;4960648;28;20031;-78
2023/03/01 01:21:33;;;;;;;24.13;13.45;;;128.60;2252.80;;;;;;4977602;28;20371;-79
2023/03/01 01:23:59;;;;;;;22.25;13.13;;;128.60;2252.80;;;;;;4960629;28;20034;-76
2023/03/01 01:26:28;;;;;;;27.63;14.35;;;128.60;2252.80;;;;;;4960757;28;20074;-77
2023/03/01 01:28:54;;;;;;;22.63;13.13;;;128.60;2252.80;;;;;;4960247;28;20033;-78
2023/03/01 01:31:23;;;;;;;20.55;13.30;;;128.60;2252.80;;;;;;4960378;28;20486;-78
2023/03/01 01:33:49;;;;;;;25.02;13.65;;;128.60;2252.80;;;;;;4960316;28;20031;-79
2023/03/01 01:36:15;;;;;;;24.83;12.55;;;128.60;2252.80;;;;;;4977666;28;20038;-77
2023/03/01 01:38:42;;;;;;;21.17;11.73;;;128.60;2252.80;;;;;;4960251;28;20467;-78
2023/03/01 01:41:11;;;;;;;18.13;10.95;;;128.90;2252.80;;;;;;4960123;28;20050;-74
2023/03/01 01:43:46;;;;;;;19.45;11.82;;;128.60;2252.80;;;;;;4977695;28;20048;-77
2023/03/01 01:46:15;;;;;;;23.05;12.60;;;128.60;2252.80;;;;;;4960608;28;20030;-75
2023/03/01 01:48:49;;;;;;;27.10;13.85;;;128.50;2252.80;;;;;;4960211;28;20027;-74
2023/03/01 01:51:40;;;;;;;24.48;14.48;;;128.50;2252.80;;;;;;4959942;28;20030;-77
2023/03/01 01:54:23;;;;;;;24.38;12.50;;;128.40;2252.80;;;;;;4959883;28;20066;-77
2023/03/01 01:57:02;;;;;;;27.35;12.75;;;128.40;2252.80;;;;;;4959772;28;20146;-77
2023/03/01 01:59:30;;;;;;;19.90;12.45;;;128.40;2252.80;;;;;;4956047;28;20031;-76
2023/03/01 02:02:00;;;;;;;21.30;13.52;;;128.40;2252.80;;;;;;4954085;28;20023;-77
2023/03/01 02:04:25;;;;;;;22.00;12.88;;;128.40;2252.80;;;;;;4955646;28;20683;-80
2023/03/01 02:07:01;;;;;;;19.80;12.73;;;128.50;2252.80;;;;;;4959479;28;20023;-78
2023/03/01 02:09:27;;;;;;;21.55;13.90;;;128.50;2252.80;;;;;;4976834;28;20027;-77
2023/03/01 02:11:54;;;;;;;23.60;12.18;;;128.50;2252.80;;;;;;4959539;28;20027;-77
2023/03/01 02:14:19;;;;;;;21.70;12.70;;;128.50;2252.80;;;;;;4959263;28;20031;-76
2023/03/01 02:16:46;;;;;;;34.45;15.38;;;128.60;2252.80;;;;;;4972315;28;20038;-76
2023/03/01 02:19:23;;;;;;;51.55;22.40;;;128.60;2252.80;;;;;;4974986;28;20027;-76
2023/03/01 02:22:03;;;;;;;45.25;19.88;;;128.70;2252.80;;;;;;4975343;28;20031;-78
2023/03/01 02:24:53;;;;;;;44.40;19.38;;;128.70;2252.80;;;;;;4994104;28;20073;-77
2023/03/01 02:27:21;;;;;;;36.40;16.95;;;128.70;2252.80;;;;;;4996252;28;20473;-76
2023/03/01 02:29:47;;;;;;;28.05;13.18;;;128.70;2252.80;;;;;;4978714;28;20037;-77
2023/03/01 02:32:15;;;;;;;33.33;16.73;;;128.70;2252.80;;;;;;4978484;28;20034;-77
2023/03/01 02:34:41;;;;;;;36.92;19.35;;;128.70;2252.80;;;;;;4978542;28;20482;-78
2023/03/01 02:37:14;;;;;;;34.33;17.83;;;128.70;2252.80;;;;;;4978351;28;20030;-78
2023/03/01 02:39:47;;;;;;;25.00;13.75;;;128.70;2252.80;;;;;;4978701;28;20054;-80
2023/03/01 02:42:19;;;;;;;32.47;14.07;;;128.80;2252.80;;;;;;4978543;28;20034;-81
2023/03/01 02:44:45;;;;;;;32.92;17.67;;;128.80;2252.80;;;;;;4978305;28;20076;-77
2023/03/01 02:47:11;;;;;;;39.28;20.15;;;128.80;2252.80;;;;;;4978319;28;20113;-77
2023/03/01 02:49:37;;;;;;;33.45;16.98;;;128.80;2252.80;;;;;;4995402;28;20088;-78
2023/03/01 02:52:28;;;;;;;38.13;19.15;;;128.80;2252.80;;;;;;4977757;28;20181;-78
2023/03/01 02:55:20;;;;;;;27.45;12.13;;;128.80;2252.80;;;;;;4978194;28;20030;-79
2023/03/01 02:57:50;;;;;;;21.73;13.52;;;128.80;2252.80;;;;;;4974543;28;20034;-78
2023/03/01 03:00:20;;;;;;;29.33;14.57;;;128.90;2252.80;;;;;;4995322;28;20023;-78
2023/03/01 03:02:49;;;;;;;26.90;14.02;;;153.60;2252.80;;;;;;4977975;28;20022;-78
2023/03/01 03:05:21;;;;;;;28.70;15.45;;;153.60;2252.80;;;;;;4977698;28;20466;-77
2023/03/01 03:07:48;;;;;;;28.70;15.35;;;153.70;2252.80;;;;;;5001026;28;20026;-73
2023/03/01 03:10:19;;;;;;;20.92;12.82;;;153.70;2252.80;;;;;;5014835;28;20046;-74
2023/03/01 03:12:53;;;;;;;35.03;20.08;;;153.60;2252.80;;;;;;5010751;28;20027;-73
2023/03/01 03:15:20;;;;;;;33.53;19.25;;;128.90;2252.80;;;;;;4979326;28;20088;-77
2023/03/01 03:17:46;;;;;;;26.08;15.15;;;128.90;2252.80;;;;;;4977885;28;20035;-77
2023/03/01 03:20:18;;;;;;;24.60;15.38;;;153.70;2252.80;;;;;;4995346;28;20097;-77
2023/03/01 03:22:48;;;;;;;28.70;15.43;;;153.60;2252.80;;;;;;4995234;28;20461;-76
2023/03/01 03:25:14;;;;;;;25.45;14.68;;;128.90;2252.80;;;;;;4977745;28;20065;-79
2023/03/01 03:27:43;;;;;;;29.02;15.40;;;154.20;2252.80;;;;;;4995382;28;20034;-77
2023/03/01 03:30:15;;;;;;;28.20;15.20;;;153.60;2252.80;;;;;;4977676;28;20058;-75
2023/03/01 03:32:51;;;;;;;18.70;11.70;;;153.70;2252.80;;;;;;4977606;28;20493;-75
2023/03/01 03:35:24;;;;;;;21.27;12.85;;;153.60;2252.80;;;;;;4994503;28;20038;-76
2023/03/01 03:38:02;;;;;;;23.55;14.65;;;153.60;2252.80;;;;;;4977584;28;20026;-76
2023/03/01 03:40:31;;;;;;;35.50;18.48;;;153.60;2252.80;;;;;;4977005;28;20026;-76
2023/03/01 03:42:56;;;;;;;35.90;18.25;;;153.60;2252.80;;;;;;4977279;28;20470;-77
2023/03/01 03:45:22;;;;;;;45.80;19.30;;;128.90;2252.80;;;;;;4977560;28;20034;-79
2023/03/01 03:47:48;;;;;;;37.90;18.25;;;153.60;2252.80;;;;;;4976884;28;20027;-78
2023/03/01 03:50:16;;;;;;;50.00;22.70;;;153.60;2252.80;;;;;;4994348;28;20416;-76
2023/03/01 03:52:42;;;;;;;49.38;20.95;;;153.60;2252.80;;;;;;4964266;28;20059;-76
2023/03/01 03:55:10;;;;;;;53.25;21.17;;;153.60;2252.80;;;;;;4988751;28;20035;-75
2023/03/01 03:57:37;;;;;;;44.13;20.75;;;153.60;2252.80;;;;;;4993884;28;20081;-77
2023/03/01 04:00:05;;;;;;;34.95;17.83;;;153.60;2252.80;;;;;;4977245;28;20037;-78
2023/03/01 04:02:31;;;;;;;29.92;15.60;;;153.60;2252.80;;;;;;4976877;28;20532;-77
2023/03/01 04:04:57;;;;;;;18.55;12.82;;;153.60;2252.80;;;;;;4977143;28;20113;-75
2023/03/01 04:07:22;;;;;;;20.42;12.85;;;153.60;2252.80;;;;;;4994751;28;20089;-76
2023/03/01 04:09:48;;;;;;;20.20;11.82;;;153.60;2252.80;;;;;;4976612;28;20447;-79
2023/03/01 04:12:14;;;;;;;22.67;13.02;;;153.60;2252.80;;;;;;4977381;28;20035;-77
2023/03/01 04:14:40;;;;;;;17.70;12.10;;;153.60;2252.80;;;;;;4994613;28;20459;-76
2023/03/01 04:17:05;;;;;;;22.90;11.85;;;153.60;2252.80;;;;;;4976683;28;20057;-76
2023/03/01 04:19:35;;;;;;;24.48;12.52;;;128.90;2252.80;;;;;;4976935;28;20462;-77
2023/03/01 04:22:09;;;;;;;24.65;14.98;;;128.90;2252.80;;;;;;4976969;28;20032;-77
2023/03/01 04:24:35;;;;;;;21.30;13.77;;;153.60;2252.80;;;;;;4994318;28;20031;-79
2023/03/01 04:27:01;;;;;;;25.83;13.95;;;153.60;2252.80;;;;;;4979779;28;20030;-77
2023/03/01 04:29:27;;;;;;;24.42;14.50;;;153.70;2252.80;;;;;;4980469;28;20146;-78
2023/03/01 04:31:53;;;;;;;22.17;13.38;;;153.60;2252.80;;;;;;4980777;28;20065;-77
2023/03/01 04:34:19;;;;;;;20.65;13.32;;;153.60;2252.80;;;;;;4980836;28;20030;-78
2023/03/01 04:36:44;;;;;;;24.80;14.40;;;153.60;2252.80;;;;;;4980248;28;20069;-80
2023/03/01 04:39:13;;;;;;;21.13;13.25;;;153.60;2252.80;;;;;;4980868;28;20034;-76
2023/03/01 04:41:39;;;;;;;21.40;13.60;;;153.70;2252.80;;;;;;4967979;28;20061;-78
2023/03/01 04:44:06;;;;;;;26.55;15.00;;;128.90;2252.80;;;;;;4961021;28;20385;-76
2023/03/01 04:46:32;;;;;;;34.90;19.58;;;153.60;2252.80;;;;;;4961170;28;20490;-77
2023/03/01 04:48:58;;;;;;;28.05;15.15;;;153.60;2252.80;;;;;;4961222;28;20030;-76
2023/03/01 04:51:24;;;;;;;28.75;17.88;;;153.60;2252.80;;;;;;4960291;28;20087;-75
2023/03/01 04:53:49;;;;;;;24.25;16.33;;;153.60;2252.80;;;;;;4961058;28;20027;-76
2023/03/01 04:56:17;;;;;;;25.05;16.60;;;153.60;2252.80;;;;;;4960981;28;20023;-77
2023/03/01 04:58:44;;;;;;;33.53;19.10;;;153.60;2252.80;;;;;;4960701;28;20439;-75
2023/03/01 05:01:16;;;;;;;31.25;18.20;;;153.70;2252.80;;;;;;4960964;28;20086;-76
2023/03/01 05:03:47;;;;;;;32.10;20.13;;;153.60;2252.80;;;;;;4960882;28;20471;-76
2023/03/01 05:06:14;;;;;;;43.47;25.42;;;153.70;2252.80;;;;;;4960597;28;20049;-79
2023/03/01 05:08:41;;;;;;;38.53;21.98;;;153.70;2252.80;;;;;;4978105;28;20039;-80
2023/03/01 05:11:08;;;;;;;21.20;12.95;;;153.70;2252.80;;;;;;4960476;28;20062;-76
2023/03/01 05:13:36;;;;;;;20.60;13.02;;;153.60;2252.80;;;;;;4960624;28;20466;-76
2023/03/01 05:16:02;;;;;;;23.67;13.57;;;153.60;2252.80;;;;;;4960335;28;20114;-75
2023/03/01 05:18:30;;;;;;;21.75;14.07;;;153.60;2252.80;;;;;;4960549;28;20027;-76
2023/03/01 05:21:03;;;;;;;24.42;15.65;;;153.60;2252.80;;;;;;4960563;28;20034;-77
2023/03/01 05:23:30;;;;;;;25.13;15.68;;;153.60;2252.80;;;;;;4978230;28;20034;-76
2023/03/01 05:26:01;;;;;;;29.42;17.58;;;153.60;2252.80;;;;;;4960171;28;20356;-79
2023/03/01 05:28:28;;;;;;;28.48;17.75;;;153.60;2252.80;;;;;;4960199;28;20150;-77
2023/03/01 05:30:54;;;;;;;25.42;17.23;;;153.60;2252.80;;;;;;4977965;28;20027;-77
2023/03/01 05:33:21;;;;;;;20.33;12.75;;;153.60;2252.80;;;;;;4960065;28;20050;-77
2023/03/01 05:35:49;;;;;;;19.33;14.20;;;128.90;2252.80;;;;;;4977365;28;20044;-79
2023/03/01 05:38:15;;;;;;;21.95;15.60;;;128.90;2252.80;;;;;;4960202;28;20494;-77
2023/03/01 05:40:43;;;;;;;29.08;17.58;;;128.90;2252.80;;;;;;4959932;28;20026;-77
2023/03/01 05:43:10;;;;;;;27.63;16.85;;;128.90;2252.80;;;;;;4960149;28;20042;-80
2023/03/01 05:45:37;;;;;;;27.02;15.30;;;128.80;2252.80;;;;;;4960030;28;20581;-78
2023/03/01 05:48:04;;;;;;;30.73;18.67;;;128.90;2252.80;;;;;;4959686;28;20374;-76
2023/03/01 05:50:35;;;;;;;25.85;15.48;;;128.90;2252.80;;;;;;4960077;28;20037;-78
2023/03/01 05:53:05;;;;;;;24.70;13.57;;;128.90;2252.80;;;;;;4963881;28;20050;-77
2023/03/01 05:55:31;;;;;;;20.98;14.07;;;128.90;2252.80;;;;;;4995524;28;20081;-78
2023/03/01 05:58:01;;;;;;;20.70;14.00;;;128.90;2252.80;;;;;;4978454;28;20073;-79
2023/03/01 06:00:28;;;;;;;19.70;12.48;;;128.90;2252.80;;;;;;4994628;28;20394;-76
2023/03/01 06:02:56;;;;;;;32.53;19.73;;;128.90;2252.80;;;;;;4977766;28;20023;-76
2023/03/01 06:05:22;;;;;;;46.13;26.75;;;153.60;2252.80;;;;;;4978025;28;20129;-77
2023/03/01 06:07:48;;;;;;;64.82;32.67;;;153.60;2252.80;;;;;;4978415;28;20029;-77
2023/03/01 06:10:14;;;;;;;72.63;37.78;;;153.70;2252.80;;;;;;4979010;28;20378;-79
2023/03/01 06:12:41;;;;;;;63.03;33.10;;;153.70;2252.80;;;;;;4978870;28;20026;-78
2023/03/01 06:15:11;;;;;;;85.70;42.83;;;153.60;2252.80;;;;;;4978193;28;20034;-77
2023/03/01 06:17:39;;;;;;;40.70;23.75;;;153.70;2252.80;;;;;;4978674;28;20126;-77
2023/03/01 06:20:06;;;;;;;40.40;23.17;;;153.70;2252.80;;;;;;4996251;28;20458;-78
2023/03/01 06:22:32;;;;;;;44.03;24.63;;;153.60;2252.80;;;;;;4996137;28;20053;-75
2023/03/01 06:24:58;;;;;;;42.00;23.65;;;153.70;2252.80;;;;;;4996208;28;20138;-78
2023/03/01 06:27:23;;;;;;;44.35;26.77;;;153.70;2252.80;;;;;;4978775;28;20089;-78
2023/03/01 06:29:49;;;;;;;48.70;24.40;;;153.80;2252.80;;;;;;4996054;28;20514;-78
2023/03/01 06:32:15;;;;;;;45.22;26.20;;;153.80;2252.80;;;;;;4978645;28;20027;-77
2023/03/01 06:34:41;;;;;;;34.70;21.63;;;153.70;2252.80;;;;;;4978562;28;20026;-77
2023/03/01 06:37:07;;;;;;;36.25;20.95;;;153.80;2252.80;;;;;;4995457;28;20034;-77
2023/03/01 06:39:33;;;;;;;31.98;21.05;;;;;;;;;;4978398;28;20030;-79
2023/03/01 06:41:59;;;;;;;52.63;28.95;;;153.90;2252.80;;;;;;4995954;28;20050;-78
2023/03/01 06:44:26;;;;;;;52.15;29.60;;;154.00;2252.80;;;;;;4978130;28;20034;-78
2023/03/01 06:46:51;;;;;;;86.40;44.67;;;154.00;2252.80;;;;;;4978320;28;20037;-78
2023/03/01 06:49:17;;;;;;;79.80;42.13;;;153.80;2252.80;;;;;;4977561;28;20030;-75
2023/03/01 06:51:44;;;;;;;102.32;52.15;;;153.90;2252.80;;;;;;4995592;28;20470;-76
2023/03/01 06:54:10;;;;;;;180.52;82.60;;;154.00;2252.80;;;;;;4995277;28;20057;-78
2023/03/01 06:56:35;;;;;;;144.68;71.13;;;154.00;2252.80;;;;;;4977776;28;20061;-77
2023/03/01 06:59:02;;;;;;;70.20;42.50;;;154.10;2252.80;;;;;;4978143;28;20076;-77
2023/03/01 07:01:28;;;;;;;72.65;38.03;;;;;;;;;;4959950;28;20080;-77
2023/03/01 07:03:54;;;;;;;76.18;43.47;;;154.10;2252.80;;;;;;4954448;29;20058;-78
2023/03/01 07:06:20;;;;;;;54.30;32.38;;;153.90;2252.80;;;;;;4972714;28;20058;-75
2023/03/01 07:08:46;;;;;;;52.72;32.20;;;154.00;2252.80;;;;;;4958542;28;20490;-78
2023/03/01 07:11:12;;;;;;;74.22;41.42;;;154.00;2252.80;;;;;;4958238;28;20062;-78
2023/03/01 07:13:38;;;;;;;69.90;45.15;;;154.00;2252.80;;;;;;4975492;28;20467;-79
2023/03/01 07:16:04;;;;;;;67.65;42.13;;;154.10;2252.80;;;;;;4958456;28;20042;-75
2023/03/01 07:18:30;;;;;;;60.42;37.08;;;154.10;2252.80;;;;;;4958197;28;20030;-78
2023/03/01 07:20:55;;;;;;;57.90;33.75;;;154.10;2252.80;;;;;;4958360;28;20382;-75
2023/03/01 07:23:21;;;;;;;68.07;39.72;;;154.10;2252.80;;;;;;4958300;28;20026;-79
2023/03/01 07:25:54;;;;;;;79.30;47.92;;;154.10;2252.80;;;;;;4973916;28;20089;-77
2023/03/01 07:28:22;;;;;;;73.13;41.65;;;154.20;2252.80;;;;;;4975834;28;20451;-75
2023/03/01 07:30:48;;;;;;;47.53;30.60;;;154.30;2252.80;;;;;;4956192;28;20058;-78
2023/03/01 07:33:14;;;;;;;39.75;25.63;;;154.30;2252.80;;;;;;4956977;28;20039;-76
2023/03/01 07:35:39;;;;;;;41.95;28.52;;;154.30;2252.80;;;;;;4957273;28;20065;-77
2023/03/01 07:38:05;;;;;;;38.72;25.10;;;154.30;2252.80;;;;;;4957889;28;20035;-75
2023/03/01 07:40:31;;;;;;;42.30;26.00;;;154.20;2252.80;;;;;;4975118;28;20474;-77
2023/03/01 07:42:57;;;;;;;42.72;28.42;;;154.20;2252.80;;;;;;4974092;28;20035;-77
2023/03/01 07:45:24;;;;;;;48.15;30.98;;;154.30;2252.80;;;;;;4975058;28;20033;-78
2023/03/01 07:47:52;;;;;;;37.40;28.80;;;154.20;2252.80;;;;;;4974935;28;20023;-75
2023/03/01 07:50:18;;;;;;;59.30;37.85;;;154.20;2252.80;;;;;;4957852;28;20426;-78
2023/03/01 07:52:48;;;;;;;66.45;42.30;;;154.30;2252.80;;;;;;4957229;28;20046;-77
2023/03/01 07:55:15;;;;;;;60.13;36.83;;;154.30;2252.80;;;;;;4957498;28;20041;-76
2023/03/01 07:57:42;;;;;;;57.25;37.78;;;154.40;2252.80;;;;;;4974925;28;20110;-76
2023/03/01 08:00:10;;;;;;;49.97;34.30;;;154.40;2252.80;;;;;;4956213;28;20082;-77
2023/03/01 08:02:35;;;;;;;68.47;41.40;;;154.40;2252.80;;;;;;4973128;28;20027;-77
2023/03/01 08:05:01;;;;;;;63.90;38.67;;;154.40;2252.80;;;;;;4972543;28;20035;-76
2023/03/01 08:07:27;;;;;;;45.30;28.30;;;154.50;2252.80;;;;;;4973421;28;20085;-80
2023/03/01 08:09:53;;;;;;;55.50;32.03;;;154.50;2252.80;;;;;;4973720;28;20027;-77
2023/03/01 08:12:18;;;;;;;59.95;38.03;;;154.50;2252.80;;;;;;4957498;28;20030;-78
2023/03/01 08:14:44;;;;;;;54.35;34.60;;;;;;;;;;4957144;28;20035;-76
2023/03/01 08:17:10;;;;;;;42.58;27.58;;;;;;;;;;4954326;29;20023;-76
2023/03/01 08:19:37;;;;;;;58.20;35.90;;;;;;;;;;4955727;28;20035;-80
2023/03/01 08:22:02;;;;;;;59.83;38.78;;;179.30;2252.80;;;;;;4954048;29;20023;-76
2023/03/01 08:24:28;;;;;;;42.40;28.30;;;179.30;2252.80;;;;;;4954009;28;20090;-79
2023/03/01 08:26:54;;;;;;;44.85;29.38;;;179.30;2252.80;;;;;;4974466;28;20019;-78
2023/03/01 08:29:21;;;;;;;54.85;37.13;;;;;;;;;;4957200;28;20533;-78
2023/03/01 08:31:47;;;;;;;48.92;32.75;;;179.60;2252.80;;;;;;4974848;28;20031;-77
2023/03/01 08:34:16;;;;;;;45.00;27.60;;;179.70;2252.80;;;;;;4956912;28;20039;-77
2023/03/01 08:36:44;;;;;;;55.63;35.13;;;;;;;;;;4953941;29;20031;-78
2023/03/01 08:39:11;;;;;;;48.13;32.00;;;;;;;;;;4941944;29;20027;-78
2023/03/01 08:41:38;;;;;;;30.65;22.17;;;;;;;;;;4956643;28;20483;-79
2023/03/01 08:44:04;;;;;;;43.40;26.05;;;;;;;;;;4954409;29;20035;-78
2023/03/01 08:46:40;;;;;;;35.45;25.00;;;;;;;;;;4954200;28;20031;-79
2023/03/01 08:49:17;;;;;;;34.50;22.73;;;;;;;;;;4953844;29;20024;-78
2023/03/01 08:51:44;;;;;;;30.30;20.00;;;;;;;;;;4952966;28;20082;-78
2023/03/01 08:54:11;;;;;;;32.78;22.63;;;;;;;;;;4967146;28;20071;-80
2023/03/01 08:56:38;;;;;;;54.88;36.65;;;;;;;;;;4974893;28;20026;-81
2023/03/01 08:59:04;;;;;;;49.45;32.72;;;;;;;;;;4976512;28;20520;-81
2023/03/01 09:01:30;;;;;;;35.55;23.05;;;;;;;;;;4957756;28;20102;-83
2023/03/01 09:03:59;;;;;;;38.65;23.50;;;204.80;2252.80;;;;;;4953370;29;20035;-81
2023/03/01 09:06:25;;;;;;;44.67;26.75;;;180.10;2252.80;;;;;;4943984;28;20423;-81
2023/03/01 09:08:50;;;;;;;47.38;29.35;;;180.00;2252.80;;;;;;4974356;28;20103;-80
2023/03/01 09:11:20;;;;;;;34.28;25.70;;;180.10;2252.80;;;;;;4956838;28;20423;-81
2023/03/01 09:13:47;;;;;;;36.55;22.85;;;180.10;2252.80;;;;;;4960578;28;20367;-81
2023/03/01 09:16:14;;;;;;;39.38;27.13;;;180.10;2252.80;;;;;;4960667;28;20239;-80
2023/03/01 09:18:40;;;;;;;32.63;23.00;;;180.10;2252.80;;;;;;4978070;28;20027;-78
2023/03/01 09:21:09;;;;;;;32.03;22.25;;;180.10;2252.80;;;;;;4960622;28;20460;-78
2023/03/01 09:23:36;;;;;;;32.40;22.55;;;204.80;2252.80;;;;;;4977593;28;20482;-80
2023/03/01 09:26:03;;;;;;;30.45;20.42;;;204.90;2252.80;;;;;;4957194;29;20039;-78
2023/03/01 09:28:29;;;;;;;37.70;22.30;;;204.90;2252.80;;;;;;4960583;28;20034;-82
2023/03/01 09:30:58;;;;;;;32.90;19.27;;;;;;;;;;4960245;28;20027;-79
2023/03/01 09:33:24;;;;;;;33.30;20.38;;;;;;;;;;4958128;28;20471;-79
2023/03/01 09:35:50;;;;;;;22.63;15.93;;;;;;;;;;4957209;29;20427;-80
2023/03/01 09:38:16;;;;;;;23.17;15.57;;;;;;;;;;4945145;29;20031;-80
2023/03/01 09:40:43;;;;;;;24.10;17.23;;;;;;;;;;4957032;29;20055;-80
2023/03/01 09:43:16;;;;;;;39.22;23.25;;;;;;;;;;4955751;28;20018;-79
2023/03/01 09:45:42;;;;;;;;;;;;;;;;;;4957107;29;20023;-76
2023/03/01 09:48:13;;;;;;;35.35;19.58;;;;;;;;;;4972886;28;19957;-77
2023/03/01 09:50:42;;;;;;;36.20;19.23;;;;;;;;;;4959803;28;20019;-77
2023/03/01 09:53:12;;;;;;;42.80;22.55;;;;;;;;;;4956046;28;20047;-78
2023/03/01 09:55:40;;;;;;;41.45;24.90;;;;;;;;;;4959163;28;20129;-78
2023/03/01 09:58:25;;;;;;;50.55;28.52;;;;;;;;;;4959603;28;20061;-78
2023/03/01 10:00:51;;;;;;;48.35;25.92;;;;;;;;;;4959809;28;20046;-80
2023/03/01 10:03:21;;;;;;;39.60;23.10;;;;;;;;;;4959740;28;20482;-77
2023/03/01 10:05:50;;;;;;;56.92;28.83;;;;;;;;;;4959429;28;20031;-76
2023/03/01 10:08:29;;;;;;;34.72;20.77;;;;;;;;;;4959666;28;20019;-76
2023/03/01 10:10:55;;;;;;;31.73;20.90;;;;;;;;;;4976712;28;20462;-77
2023/03/01 10:13:28;;;;;;;37.33;23.10;;;;;;;;;;4976718;28;20026;-76
2023/03/01 10:15:57;;;;;;;25.90;17.23;;;;;;;;;;4959394;28;20081;-76
2023/03/01 10:18:27;;;;;;;24.80;15.95;;;;;;;;;;4959056;28;20121;-79
2023/03/01 10:21:04;;;;;;;31.30;22.52;;;;;;;;;;4959064;28;20482;-77
2023/03/01 10:23:35;;;;;;;31.80;19.20;;;;;;;;;;4975905;28;20030;-78
2023/03/01 10:26:21;;;;;;;27.88;17.65;;;;;;;;;;4959360;28;20085;-77
2023/03/01 10:28:53;;;;;;;21.30;13.02;;;;;;;;;;4958964;28;20030;-80
2023/03/01 10:31:22;;;;;;;22.50;16.45;;;;;;;;;;4959122;28;20110;-76
2023/03/01 10:33:51;;;;;;;28.35;17.50;;;;;;;;;;4958840;28;20037;-76
2023/03/01 10:36:17;;;;;;;31.33;22.23;;;;;;;;;;4958349;28;20120;-76
2023/03/01 10:38:52;;;;;;;33.25;21.98;;;;;;;;;;4959157;28;20180;-77
2023/03/01 10:41:18;;;;;;;27.70;18.95;;;;;;;;;;4976627;28;20018;-80
2023/03/01 10:43:44;;;;;;;26.13;17.50;;;;;;;;;;4959169;28;20041;-79
2023/03/01 10:46:30;;;;;;;26.88;18.92;;;230.70;2252.80;;;;;;4958974;28;20039;-78
2023/03/01 10:49:20;;;;;;;24.52;15.65;;;230.70;2252.80;;;;;;4976434;28;20031;-79
2023/03/01 10:51:49;;;;;;;24.80;16.20;;;230.60;2252.80;;;;;;4958510;28;20051;-77
2023/03/01 10:54:32;;;;;;;28.55;18.35;;;230.60;2252.80;;;;;;4958715;28;20037;-79
2023/03/01 10:57:01;;;;;;;28.77;19.27;;;230.60;2252.80;;;;;;4958812;28;20030;-79
2023/03/01 10:59:37;;;;;;;27.55;18.83;;;230.60;2252.80;;;;;;4959180;28;20027;-80
2023/03/01 11:02:03;;;;;;;25.35;18.70;;;230.60;2252.80;;;;;;4959395;28;20510;-78
2023/03/01 11:04:29;;;;;;;35.25;22.05;;;230.60;2252.80;;;;;;4958296;28;20038;-79
2023/03/01 11:06:59;;;;;;;48.83;25.23;;;230.60;2252.80;;;;;;4959351;28;20027;-78
2023/03/01 11:09:27;;;;;;;45.53;27.63;;;230.50;2252.80;;;;;;4966019;28;20026;-77
2023/03/01 11:11:55;;;;;;;25.02;18.25;;;230.50;2252.80;;;;;;4973114;28;20031;-77
2023/03/01 11:14:23;;;;;;;30.75;20.35;;;230.50;2252.80;;;;;;4973027;28;20030;-77
2023/03/01 11:17:18;;;;;;;24.10;17.83;;;230.50;2252.80;;;;;;4978965;28;20109;-79
2023/03/01 11:20:14;;;;;;;35.00;21.65;;;230.50;2252.80;;;;;;4958759;28;20161;-77
2023/03/01 11:23:03;;;;;;;35.30;23.13;;;230.50;2252.80;;;;;;4958574;28;20378;-79
2023/03/01 11:25:41;;;;;;;34.67;24.85;;;230.50;2252.80;;;;;;4976172;28;20038;-79
2023/03/01 11:28:13;;;;;;;33.70;24.20;;;230.60;2252.80;;;;;;4958722;28;20027;-77
2023/03/01 11:30:48;;;;;;;33.03;22.92;;;230.60;2252.80;;;;;;4976716;28;20030;-80
2023/03/01 11:33:40;;;;;;;30.10;20.58;;;230.60;2252.80;;;;;;4958556;28;20125;-79
2023/03/01 11:36:34;;;;;;;27.40;18.92;;;230.40;2252.80;;;;;;4974161;28;20510;-79
2023/03/01 11:39:13;;;;;;;25.10;17.05;;;230.40;2252.80;;;;;;4975188;28;20102;-83
2023/03/01 12:09:32;;;;;;;36.63;24.80;;;230.70;2252.80;;;;;;5091187;27;20389;-78
2023/03/01 12:12:15;;;;;;;27.60;18.40;;;230.80;2252.80;;;;;;5104417;28;20032;-76
2023/03/01 12:15:07;;;;;;;36.15;21.95;;;230.60;2252.80;;;;;;5098895;28;20020;-77
2023/03/01 12:18:09;;;;;;;30.45;20.30;;;230.60;2252.80;;;;;;5082381;28;20414;-76
2023/03/01 12:20:44;;;;;;;36.08;21.77;;;230.50;2252.80;;;;;;5087996;28;20137;-77
2023/03/01 12:23:23;;;;;;;28.52;20.10;;;230.50;2252.80;;;;;;5089413;28;20028;-77
2023/03/01 12:26:15;;;;;;;39.05;24.42;;;230.50;2252.80;;;;;;5089876;28;20020;-79
2023/03/01 12:29:00;;;;;;;42.72;26.15;;;230.50;2252.80;;;;;;5084322;28;20115;-79
2023/03/01 12:31:33;;;;;;;50.90;29.48;;;230.50;2252.80;;;;;;5081539;28;20089;-78
2023/03/01 12:34:18;;;;;;;43.35;28.70;;;230.60;2252.80;;;;;;5089017;28;20028;-79
2023/03/01 12:37:05;;;;;;;36.22;24.15;;;230.60;2252.80;;;;;;5090389;28;20034;-77
2023/03/01 12:39:49;;;;;;;44.05;33.63;;;230.60;2252.80;;;;;;5088755;28;20036;-78
2023/03/01 12:42:47;;;;;;;45.53;29.20;;;230.60;2252.80;;;;;;5089063;28;20020;-77
2023/03/01 12:45:48;;;;;;;60.78;33.20;;;230.60;2252.80;;;;;;5088565;28;20252;-77
2023/03/01 12:48:51;;;;;;;48.83;26.33;;;230.60;2252.80;;;;;;5086358;28;20064;-79
2023/03/01 12:51:24;;;;;;;59.97;29.40;;;230.60;2252.80;;;;;;5088899;28;20024;-76
2023/03/01 12:53:54;;;;;;;51.45;27.90;;;230.50;2252.80;;;;;;5088588;28;20054;-78
2023/03/01 12:56:28;;;;;;;43.75;25.83;;;230.50;2252.80;;;;;;5088823;28;20025;-78
2023/03/01 12:59:21;;;;;;;35.20;25.88;;;230.50;2252.80;;;;;;5088727;28;20039;-77